Time;durP1;ratioP1;P1;durP2;ratioP2;P2;SDS_P1;SDS_P2;PMS_P1;PMS_P2;Temp;Humidity;BMP_temperature;BMP_pressure;BME280_temperature;BME280_humidity;BME280_pressure;Samples;Min_cycle;Max_cycle;Signal;HPM_P1;HPM_P2
2022/01/21 00:01:00;;;;;;;5.15;1.60;;;;;;;0.28;65.45;100628.05;1733030;81;21704;-74
2022/01/21 00:03:26;;;;;;;3.30;1.50;;;;;;;0.15;65.42;100616.92;1733383;82;21044;-74
2022/01/21 00:05:53;;;;;;;3.85;1.60;;;;;;;0.05;65.47;100607.17;1732943;81;21237;-74
2022/01/21 00:08:20;;;;;;;5.37;1.25;;;;;;;-0.06;65.53;100620.70;1732943;81;21062;-74
2022/01/21 00:10:47;;;;;;;7.35;1.62;;;;;;;-0.15;65.57;100620.09;1733091;82;21099;-74
2022/01/21 00:13:23;;;;;;;4.70;1.80;;;;;;;-0.45;65.70;100561.30;1732980;81;22535;-74
2022/01/21 00:15:44;;;;;;;3.25;1.35;;;;;;;-0.23;65.77;100617.89;1731264;81;21609;-75
2022/01/21 00:18:13;;;;;;;3.37;1.25;;;;;;;-0.25;65.75;100618.59;1733037;81;21637;-74
2022/01/21 00:31:40;;;;;;;6.08;1.47;;;;;;;-0.16;66.03;100637.72;1767254;79;21510;-75
2022/01/21 00:34:06;;;;;;;2.83;1.20;;;;;;;-0.04;66.03;100636.84;1733384;82;21100;-75
2022/01/21 00:36:35;;;;;;;3.12;1.20;;;;;;;0.07;66.01;100645.69;1703357;82;21043;-75
2022/01/21 00:39:02;;;;;;;2.22;1.20;;;;;;;-0.11;65.88;100596.20;1733139;81;22579;-74
2022/01/21 00:41:32;;;;;;;4.37;1.35;;;;;;;0.24;65.91;100654.55;1733217;81;21340;-74
2022/01/21 00:43:58;;;;;;;3.40;1.12;;;;;;;0.33;65.54;100651.25;1733056;82;21084;-74
2022/01/21 00:46:24;;;;;;;8.03;1.52;;;;;;;0.41;65.69;100645.27;1733461;81;21073;-74
2022/01/21 00:48:51;;;;;;;3.95;1.30;;;;;;;0.48;65.62;100648.75;1733567;82;21109;-75
2022/01/21 00:51:21;;;;;;;4.00;1.57;;;;;;;0.54;65.63;100648.72;1733769;81;21755;-75
2022/01/21 00:53:46;;;;;;;4.80;1.40;;;;;;;0.59;65.60;100652.91;1733184;82;21096;-74
2022/01/21 00:56:13;;;;;;;4.80;1.27;;;;;;;0.63;65.57;100657.89;1733423;81;21009;-74
2022/01/21 00:58:41;;;;;;;2.08;1.10;;;;;;;0.65;65.65;100652.00;1732886;82;21640;-74
2022/01/21 01:01:08;;;;;;;2.70;1.10;;;;;;;0.68;65.52;100650.91;1733486;81;21395;-74
2022/01/21 01:03:34;;;;;;;4.40;1.45;;;;;;;0.72;65.62;100660.66;1733498;82;21747;-75
2022/01/21 01:06:01;;;;;;;4.97;1.47;;;;;;;0.69;65.66;100647.50;1733334;82;21654;-74
2022/01/21 01:08:28;;;;;;;5.60;1.22;;;;;;;0.78;65.60;100648.48;1733292;82;21044;-74
2022/01/21 01:21:37;;;;;;;5.20;1.60;;;;;;;0.65;65.48;100665.36;1729726;81;21567;-74
2022/01/21 01:29:22;;;;;;;4.80;1.60;;;;;;;0.69;65.68;100681.17;1727897;82;21822;-74
2022/01/21 01:31:51;;;;;;;2.27;1.10;;;;;;;0.74;65.71;100679.78;1727289;81;21069;-74
2022/01/21 01:34:16;;;;;;;2.22;1.22;;;;;;;0.80;65.55;100706.89;1727528;82;21042;-75
2022/01/21 01:36:45;;;;;;;2.85;1.25;;;;;;;0.81;65.60;100679.78;1727981;81;21427;-74
2022/01/21 01:39:30;;;;;;;7.53;1.55;;;;;;;0.84;65.57;100676.48;1727813;81;21064;-74
2022/01/21 01:41:57;;;;;;;4.53;2.17;;;;;;;0.86;65.54;100674.47;1725015;82;21783;-74
2022/01/21 01:49:49;;;;;;;5.87;1.95;;;;;;;0.94;65.50;100678.45;1727828;81;21161;-76
2022/01/21 01:52:17;;;;;;;4.97;1.35;;;;;;;0.93;65.35;100676.64;1727915;82;21056;-73
2022/01/21 01:54:50;;;;;;;3.00;1.20;;;;;;;0.93;65.47;100686.12;1727846;82;21783;-73
2022/01/21 01:57:17;;;;;;;3.20;1.20;;;;;;;0.92;65.49;100691.72;1727748;82;21045;-73
2022/01/21 01:59:45;;;;;;;5.65;1.67;;;;;;;0.93;65.41;100687.42;1727900;81;21076;-74
2022/01/21 02:02:16;;;;;;;5.30;1.57;;;;;;;0.95;65.33;100690.59;1727503;81;21042;-74
2022/01/21 02:04:49;;;;;;;4.22;1.35;;;;;;;0.96;65.31;100700.58;1727861;81;21546;-74
2022/01/21 02:07:15;;;;;;;4.10;1.37;;;;;;;0.95;65.15;100700.95;1727747;81;22589;-74
2022/01/21 02:09:42;;;;;;;5.55;1.40;;;;;;;0.96;65.24;100706.66;1727845;82;21037;-74
2022/01/21 02:12:10;;;;;;;4.40;1.30;;;;;;;0.96;65.07;100707.95;1697307;82;21653;-74
2022/01/21 02:14:44;;;;;;;5.40;1.30;;;;;;;0.96;64.95;100707.95;1728322;82;21527;-74
2022/01/21 02:17:17;;;;;;;4.15;1.25;;;;;;;0.94;65.09;100703.48;1726591;82;21088;-74
2022/01/21 02:22:32;;;;;;;4.08;1.20;;;;;;;0.97;64.75;100723.09;1726950;81;21077;-74
2022/01/21 02:24:58;;;;;;;5.95;1.50;;;;;;;0.97;64.71;100713.61;1726515;81;21088;-73
2022/01/21 02:27:23;;;;;;;6.78;1.25;;;;;;;0.99;64.72;100707.64;1727145;81;21085;-73
2022/01/21 02:29:58;;;;;;;6.15;1.30;;;;;;;0.98;64.37;100730.08;1727722;81;21614;-74
2022/01/21 02:32:21;;;;;;;5.40;1.20;;;;;;;0.97;64.45;100727.87;1726020;81;22721;-73
2022/01/21 02:34:48;;;;;;;3.27;1.02;;;;;;;0.97;64.19;100726.98;1727922;81;21661;-73
2022/01/21 02:37:19;;;;;;;4.50;1.20;;;;;;;0.97;64.22;100726.56;1727669;81;21018;-73
2022/01/21 02:39:48;;;;;;;3.58;1.20;;;;;;;0.99;64.26;100724.48;1727688;82;21080;-73
2022/01/21 02:42:14;;;;;;;4.70;1.35;;;;;;;0.99;64.46;100718.01;1727716;82;21147;-75
2022/01/21 02:44:41;;;;;;;2.67;1.00;;;;;;;0.99;64.13;100727.97;1727537;81;21926;-73
2022/01/21 02:47:08;;;;;;;5.12;1.32;;;;;;;0.99;64.12;100729.27;1727679;82;21061;-73
2022/01/21 02:49:35;;;;;;;3.85;1.67;;;;;;;1.00;64.24;100737.96;1727879;81;21053;-74
2022/01/21 02:52:03;;;;;;;5.03;1.40;;;;;;;1.00;64.25;100757.40;1727725;81;21112;-74
2022/01/21 02:54:33;;;;;;;4.15;1.37;;;;;;;0.96;64.06;100748.13;1727716;81;21061;-74
2022/01/21 02:57:04;;;;;;;6.60;1.82;;;;;;;0.97;64.08;100758.08;1727720;82;21737;-74
2022/01/21 02:59:30;;;;;;;4.80;1.40;;;;;;;0.93;64.02;100740.14;1696890;81;21073;-74
2022/01/21 03:01:57;;;;;;;4.62;1.65;;;;;;;0.95;64.30;100748.91;1727848;82;21068;-74
2022/01/21 03:04:34;;;;;;;2.83;1.32;;;;;;;0.97;64.21;100749.01;1727620;82;21124;-74
2022/01/21 03:06:55;;;;;;;3.05;1.22;;;;;;;0.99;64.22;100745.22;1725611;81;21112;-74
2022/01/21 03:09:23;;;;;;;7.67;1.62;;;;;;;0.97;63.99;100748.60;1727043;82;21076;-74
2022/01/21 03:11:50;;;;;;;4.33;1.30;;;;;;;0.97;64.04;100752.89;1727727;81;21707;-74
2022/01/21 03:14:16;;;;;;;2.22;1.27;;;;;;;0.95;63.94;100757.98;1696868;82;21072;-74
2022/01/21 03:16:43;;;;;;;5.15;1.80;;;;;;;0.93;63.82;100759.98;1727691;81;21626;-73
2022/01/21 03:19:10;;;;;;;5.00;1.20;;;;;;;0.91;63.89;100776.73;1727850;81;21072;-74
2022/01/21 03:21:37;;;;;;;3.10;1.10;;;;;;;0.91;63.98;100762.47;1727412;81;21792;-74
2022/01/21 03:24:05;;;;;;;1.82;0.95;;;;;;;0.92;63.95;100759.09;1727481;81;21029;-74
2022/01/21 03:26:32;;;;;;;2.87;1.20;;;;;;;0.91;63.92;100775.84;1728021;82;22292;-74
2022/01/21 03:29:06;;;;;;;5.10;1.20;;;;;;;0.89;63.56;100775.73;1727685;81;21676;-74
2022/01/21 03:31:32;;;;;;;9.10;1.25;;;;;;;0.86;63.50;100791.48;1727479;81;21130;-74
2022/01/21 03:34:01;;;;;;;3.17;1.12;;;;;;;0.83;63.62;100784.42;1727363;81;21084;-74
2022/01/21 03:36:29;;;;;;;4.40;1.30;;;;;;;0.82;63.53;100783.02;1727820;82;21092;-74
2022/01/21 03:38:56;;;;;;;3.47;1.17;;;;;;;0.80;63.48;100786.80;1727731;82;22361;-74
2022/01/21 03:41:25;;;;;;;4.22;1.55;;;;;;;0.80;63.73;100802.34;1727842;81;21607;-74
2022/01/21 03:43:54;;;;;;;5.50;1.57;;;;;;;0.77;63.54;100781.04;1695781;82;21127;-74
2022/01/21 03:46:20;;;;;;;6.20;1.50;;;;;;;0.76;63.57;100788.30;1728146;81;21736;-74
2022/01/21 03:48:51;;;;;;;4.75;1.50;;;;;;;0.77;63.67;100793.11;1727802;81;21135;-74
2022/01/21 03:51:19;;;;;;;4.22;1.30;;;;;;;0.78;63.67;100789.70;1727284;81;21009;-74
2022/01/21 03:53:46;;;;;;;4.58;1.17;;;;;;;0.78;63.15;100819.50;1727993;81;21606;-74
2022/01/21 03:56:19;;;;;;;4.45;1.50;;;;;;;0.78;63.42;100812.61;1727939;82;21088;-74
2022/01/21 03:58:47;;;;;;;6.40;1.37;;;;;;;0.77;63.38;100806.95;1727304;81;22450;-74
2022/01/21 04:01:13;;;;;;;5.72;1.20;;;;;;;0.75;63.37;100812.80;1727359;82;21561;-74
2022/01/21 04:03:43;;;;;;;5.92;1.50;;;;;;;0.78;63.40;100807.84;1727728;82;21554;-74
2022/01/21 04:06:08;;;;;;;4.08;1.20;;;;;;;0.77;63.33;100820.31;1727283;82;21681;-73
2022/01/21 04:08:34;;;;;;;6.65;1.50;;;;;;;0.76;63.29;100815.91;1728080;82;21060;-73
2022/01/21 04:11:05;;;;;;;3.95;1.30;;;;;;;0.76;63.10;100823.27;1728129;81;21846;-73
2022/01/21 04:13:31;;;;;;;6.75;1.87;;;;;;;0.77;63.07;100829.38;1728128;81;21081;-74
2022/01/21 04:15:58;;;;;;;3.40;1.30;;;;;;;0.78;63.03;100825.97;1728027;82;21096;-73
2022/01/21 04:18:25;;;;;;;3.25;1.40;;;;;;;0.76;63.05;100809.02;1728191;81;21064;-73
2022/01/21 04:20:52;;;;;;;4.90;1.40;;;;;;;0.75;62.92;100830.56;1727925;82;21072;-77
2022/01/21 04:23:20;;;;;;;4.67;1.40;;;;;;;0.73;62.97;100825.69;1729874;81;21787;-74
2022/01/21 04:25:47;;;;;;;3.50;1.57;;;;;;;0.74;62.98;100843.41;1730302;81;21575;-74
2022/01/21 04:28:14;;;;;;;3.27;1.42;;;;;;;0.74;62.85;100833.05;1729945;82;21336;-74
2022/01/21 04:30:41;;;;;;;6.15;1.92;;;;;;;0.74;63.02;100831.75;1729966;82;21669;-74
2022/01/21 04:33:11;;;;;;;3.98;1.40;;;;;;;0.74;62.92;100842.12;1729803;81;21103;-74
2022/01/21 04:35:39;;;;;;;3.80;1.60;;;;;;;0.76;62.73;100834.05;1702215;82;21107;-73
2022/01/21 04:38:10;;;;;;;3.33;1.35;;;;;;;0.74;62.78;100845.59;1730179;81;21049;-74
2022/01/21 04:40:45;;;;;;;6.62;1.62;;;;;;;0.75;62.80;100843.52;1730374;81;21014;-73
2022/01/21 04:48:36;;;;;;;2.85;1.55;;;;;;;0.75;62.69;100864.63;1730343;81;21760;-73
2022/01/21 04:51:15;;;;;;;3.77;1.57;;;;;;;0.75;62.31;100860.73;1702140;82;22230;-74
2022/01/21 04:53:41;;;;;;;6.53;1.55;;;;;;;0.73;62.60;100854.19;1729968;82;21682;-74
2022/01/21 04:56:09;;;;;;;7.87;1.70;;;;;;;0.75;62.69;100855.55;1701585;82;21566;-74
2022/01/21 04:58:39;;;;;;;5.03;1.45;;;;;;;0.75;62.70;100860.73;1729695;82;21116;-74
2022/01/21 05:01:10;;;;;;;6.83;1.80;;;;;;;0.76;62.59;100861.25;1729881;82;21797;-79
2022/01/21 05:03:45;;;;;;;2.62;1.40;;;;;;;0.77;62.54;100865.66;1728983;81;21129;-78
2022/01/21 05:06:14;;;;;;;4.08;1.57;;;;;;;0.78;62.54;100864.84;1702158;84;21382;-79
2022/01/21 05:08:51;;;;;;;5.22;1.30;;;;;;;0.80;62.67;100876.20;1741750;82;21270;-78
2022/01/21 05:11:09;;;;;;;3.60;1.22;;;;;;;0.81;62.36;100882.27;1743350;82;21109;-79
2022/01/21 05:13:43;;;;;;;4.92;1.62;;;;;;;0.81;62.35;100872.83;1745239;81;22469;-78
2022/01/21 05:18:41;;;;;;;6.50;1.90;;;;;;;0.80;62.25;100881.37;1729423;81;21089;-78
2022/01/21 05:21:07;;;;;;;6.33;1.90;;;;;;;0.77;62.25;100866.54;1729449;82;22342;-79
2022/01/21 05:23:36;;;;;;;2.95;1.47;;;;;;;0.77;62.17;100888.97;1722360;81;21734;-76
2022/01/21 05:26:02;;;;;;;3.40;1.60;;;;;;;0.77;62.22;100896.75;1780043;79;22321;-78
2022/01/21 05:28:29;;;;;;;7.45;1.65;;;;;;;0.76;62.07;100879.39;1779813;79;21065;-77
2022/01/21 05:30:58;;;;;;;7.72;1.65;;;;;;;0.74;61.97;100898.71;1779318;79;22017;-77
2022/01/21 05:33:36;;;;;;;6.50;1.50;;;;;;;0.74;62.10;100875.80;1751265;80;21072;-83
2022/01/21 05:36:08;;;;;;;3.00;1.30;;;;;;;0.75;62.04;100884.05;1780391;80;21713;-79
2022/01/21 05:38:38;;;;;;;4.15;1.30;;;;;;;0.71;62.10;100874.29;1780872;79;21416;-82
2022/01/21 05:41:12;;;;;;;2.90;1.10;;;;;;;0.71;62.19;100878.17;1780182;79;21049;-81
2022/01/21 05:43:45;;;;;;;6.95;1.72;;;;;;;0.71;62.12;100885.58;1780215;79;21574;-78
2022/01/21 05:46:28;;;;;;;4.62;1.45;;;;;;;0.71;61.84;100875.59;1778969;79;21041;-77
2022/01/21 05:48:54;;;;;;;;;;;;;;;0.69;61.48;100887.55;1781807;80;21104;-77
2022/01/21 05:51:21;;;;;;;4.42;1.62;;;;;;;0.66;61.53;100871.81;1779814;79;22747;-77
2022/01/21 05:53:48;;;;;;;4.00;1.25;;;;;;;0.64;61.73;100874.30;1779917;80;21089;-77
2022/01/21 05:56:14;;;;;;;4.17;1.42;;;;;;;0.63;61.79;100876.78;1779825;80;21077;-77
2022/01/21 05:58:41;;;;;;;5.30;1.42;;;;;;;0.55;61.85;100858.14;1779713;79;21097;-76
2022/01/21 06:01:08;;;;;;;5.22;1.50;;;;;;;0.61;61.73;100883.15;1780012;79;21072;-76
2022/01/21 06:03:34;;;;;;;7.75;1.42;;;;;;;0.61;61.50;100883.55;1780014;79;21750;-75
2022/01/21 06:06:01;;;;;;;4.97;1.60;;;;;;;0.58;61.67;100895.51;1779883;79;21061;-76
2022/01/21 06:08:28;;;;;;;3.55;1.35;;;;;;;0.56;61.56;100902.28;1779795;80;21554;-77
2022/01/21 06:10:57;;;;;;;4.47;1.47;;;;;;;0.52;61.42;100892.89;1779758;80;21587;-77
2022/01/21 06:13:24;;;;;;;3.95;1.72;;;;;;;0.50;61.73;100907.02;1779990;79;21088;-79
2022/01/21 06:15:51;;;;;;;2.30;1.47;;;;;;;0.50;61.73;100910.91;1780112;79;21732;-77
2022/01/21 06:18:18;;;;;;;4.85;1.40;;;;;;;0.50;61.61;100914.80;1780039;80;21543;-77
2022/01/21 06:20:44;;;;;;;6.22;1.60;;;;;;;0.49;61.74;100905.63;1780196;80;21108;-77
2022/01/21 06:23:11;;;;;;;4.47;1.30;;;;;;;0.49;61.62;100931.15;1777151;79;21042;-77
2022/01/21 06:25:42;;;;;;;5.80;1.42;;;;;;;0.49;61.45;100906.55;1750415;80;21622;-77
2022/01/21 06:28:11;;;;;;;7.08;1.67;;;;;;;0.51;61.52;100904.06;1775727;79;21767;-77
2022/01/21 06:30:37;;;;;;;2.35;1.35;;;;;;;0.51;61.39;100922.19;1775542;80;21057;-76
2022/01/21 06:33:09;;;;;;;4.62;1.87;;;;;;;0.49;61.10;100915.98;1775806;79;21603;-77
2022/01/21 06:35:32;;;;;;;5.75;1.82;;;;;;;0.47;61.22;100916.27;1775205;79;21492;-77
2022/01/21 06:37:59;;;;;;;3.42;1.62;;;;;;;0.45;61.27;100926.56;1775595;80;21069;-77
2022/01/21 06:40:25;;;;;;;5.37;2.02;;;;;;;0.44;61.51;100920.86;1775615;79;21745;-76
2022/01/21 06:42:52;;;;;;;3.87;1.62;;;;;;;0.47;61.42;100927.56;1775602;79;21029;-76
2022/01/21 06:45:19;;;;;;;5.83;1.87;;;;;;;0.48;61.56;100930.63;1775883;80;21042;-76
2022/01/21 06:47:47;;;;;;;4.92;1.70;;;;;;;0.48;61.50;100948.76;1750669;80;21169;-76
2022/01/21 06:50:14;;;;;;;4.53;1.90;;;;;;;0.49;61.56;100972.95;1775644;80;21045;-76
2022/01/21 06:52:41;;;;;;;2.47;1.50;;;;;;;0.48;61.57;100941.39;1731336;81;21752;-76
2022/01/21 06:55:08;;;;;;;6.87;1.80;;;;;;;0.49;61.39;100947.98;1731352;82;21125;-77
2022/01/21 06:57:38;;;;;;;9.20;1.90;;;;;;;0.48;61.47;100964.70;1731587;82;21399;-77
2022/01/21 07:00:06;;;;;;;4.65;1.87;;;;;;;0.48;61.52;100966.00;1731145;82;21140;-77
2022/01/21 07:02:33;;;;;;;3.67;1.80;;;;;;;0.47;61.49;100966.78;1731564;82;21125;-76
2022/01/21 07:05:06;;;;;;;3.77;1.45;;;;;;;0.46;61.32;100985.72;1714251;82;21123;-76
2022/01/21 07:07:31;;;;;;;3.27;1.60;;;;;;;0.46;61.48;100957.23;1730694;81;21561;-77
2022/01/21 07:10:00;;;;;;;4.65;1.95;;;;;;;0.47;61.52;100959.93;1775734;79;21037;-76
2022/01/21 07:12:26;;;;;;;7.35;1.70;;;;;;;0.47;61.44;100957.71;1731599;81;21141;-77
2022/01/21 07:14:53;;;;;;;5.05;1.75;;;;;;;0.47;61.49;100960.30;1731500;82;21431;-76
2022/01/21 07:17:19;;;;;;;6.25;1.75;;;;;;;0.46;61.75;100954.23;1731367;81;21704;-76
2022/01/21 07:19:47;;;;;;;7.20;2.10;;;;;;;0.47;61.63;100956.05;1731348;81;21084;-77
2022/01/21 07:22:14;;;;;;;5.08;2.40;;;;;;;0.49;61.55;100965.19;1731484;80;21103;-77
2022/01/21 07:24:44;;;;;;;5.35;2.00;;;;;;;0.47;61.65;100957.34;1740283;81;21005;-77
2022/01/21 07:27:11;;;;;;;4.22;1.70;;;;;;;0.50;61.73;100971.77;1740623;82;21083;-76
2022/01/21 07:29:38;;;;;;;4.97;1.90;;;;;;;0.50;61.62;100968.30;1740778;81;21815;-77
2022/01/21 07:32:06;;;;;;;4.70;1.87;;;;;;;0.50;61.80;100965.30;1740705;82;21087;-77
2022/01/21 07:34:33;;;;;;;4.62;2.37;;;;;;;0.51;61.83;100963.63;1740873;81;21115;-77
2022/01/21 07:37:00;;;;;;;5.17;1.98;;;;;;;0.51;61.71;100964.52;1740764;81;21524;-77
2022/01/21 07:39:28;;;;;;;4.45;1.77;;;;;;;0.55;61.91;100965.63;1740614;81;21084;-77
2022/01/21 07:41:55;;;;;;;4.50;2.00;;;;;;;0.57;61.95;100961.05;1741024;82;21202;-76
2022/01/21 07:44:22;;;;;;;6.20;2.60;;;;;;;0.61;61.98;100962.56;1741031;81;21076;-76
2022/01/21 07:46:49;;;;;;;4.33;1.90;;;;;;;0.64;62.04;100958.49;1740814;82;21618;-77
2022/01/21 07:49:16;;;;;;;7.22;2.65;;;;;;;0.69;62.10;100962.67;1740535;81;21123;-77
2022/01/21 07:51:45;;;;;;;5.58;2.25;;;;;;;0.71;62.00;100963.30;1740401;81;21060;-77
2022/01/21 07:54:11;;;;;;;5.53;1.72;;;;;;;0.73;61.92;100968.56;1740238;82;21777;-76
2022/01/21 07:56:37;;;;;;;7.53;2.62;;;;;;;0.77;61.89;100973.18;1740485;81;21276;-76
2022/01/21 07:59:12;;;;;;;5.70;2.47;;;;;;;0.77;61.76;100997.39;1739976;81;21075;-77
2022/01/21 08:01:40;;;;;;;4.75;1.95;;;;;;;0.70;61.67;100964.48;1740009;81;22220;-76
2022/01/21 08:04:06;;;;;;;7.33;2.30;;;;;;;0.75;61.79;100983.81;1740187;81;21062;-77
2022/01/21 08:06:32;;;;;;;5.58;2.20;;;;;;;0.78;61.98;100987.51;1711282;82;21734;-76
2022/01/21 08:08:59;;;;;;;6.37;2.08;;;;;;;0.83;61.88;100983.95;1740305;81;21100;-77
2022/01/21 08:11:26;;;;;;;3.37;1.57;;;;;;;0.84;61.78;100990.91;1740490;81;21132;-76
2022/01/21 08:13:53;;;;;;;7.75;2.77;;;;;;;0.84;61.70;101020.72;1740372;82;21119;-77
2022/01/21 08:16:20;;;;;;;10.90;2.90;;;;;;;0.86;61.56;101003.98;1740390;81;21075;-77
2022/01/21 08:18:46;;;;;;;5.83;2.45;;;;;;;0.77;61.60;100984.84;1740378;81;21750;-77
2022/01/21 08:21:19;;;;;;;6.83;2.40;;;;;;;0.89;61.67;101023.64;1740562;81;21593;-77
2022/01/21 08:23:51;;;;;;;5.92;2.05;;;;;;;0.87;61.44;101003.20;1743461;81;21060;-77
2022/01/21 08:26:25;;;;;;;6.17;2.45;;;;;;;0.88;61.43;101012.38;1745739;81;21100;-77
2022/01/21 08:28:52;;;;;;;6.40;2.47;;;;;;;0.90;61.57;101015.97;1746165;81;21060;-76
2022/01/21 08:31:19;;;;;;;5.62;2.25;;;;;;;0.93;61.43;101009.67;1746036;81;21339;-76
2022/01/21 08:33:45;;;;;;;10.78;2.47;;;;;;;0.95;61.42;101005.90;1745968;81;21613;-76
2022/01/21 08:36:12;;;;;;;5.05;2.20;;;;;;;0.98;61.49;101008.72;1745881;81;22334;-77
2022/01/21 08:38:39;;;;;;;8.28;2.60;;;;;;;1.00;61.34;101025.27;1746121;81;21135;-77
2022/01/21 08:41:05;;;;;;;6.47;2.37;;;;;;;1.03;61.42;101020.27;1745920;82;21083;-76
2022/01/21 08:43:32;;;;;;;3.65;2.00;;;;;;;1.00;61.19;101014.89;1745910;81;21728;-76
2022/01/21 08:45:59;;;;;;;5.35;2.40;;;;;;;0.91;61.14;101015.56;1745840;81;21173;-76
2022/01/21 08:48:25;;;;;;;6.30;2.20;;;;;;;0.86;61.29;101000.98;1746148;81;21052;-76
2022/01/21 08:50:52;;;;;;;10.78;2.40;;;;;;;0.86;61.15;101015.64;1746303;82;21647;-77
2022/01/21 08:53:38;;;;;;;6.22;2.15;;;;;;;0.83;60.93;101015.45;1746349;82;21084;-77
2022/01/21 08:56:11;;;;;;;9.48;2.30;;;;;;;0.93;61.21;101033.41;1746007;81;23176;-77
2022/01/21 08:58:38;;;;;;;6.65;2.65;;;;;;;1.07;61.24;101013.59;1746239;81;29228;-77
2022/01/21 09:01:05;;;;;;;8.83;2.42;;;;;;;1.18;61.12;101010.44;1745898;82;21060;-77
2022/01/21 09:03:32;;;;;;;7.70;3.08;;;;;;;1.19;60.68;100996.28;1745990;81;21617;-76
2022/01/21 09:05:58;;;;;;;13.68;2.98;;;;;;;1.18;60.51;100991.88;1745889;82;22142;-76
2022/01/21 09:08:28;;;;;;;4.45;2.55;;;;;;;1.14;60.27;101001.55;1745935;82;21742;-76
2022/01/21 09:10:54;;;;;;;5.62;2.62;;;;;;;1.11;60.15;101024.30;1745766;81;21084;-76
2022/01/21 09:13:22;;;;;;;8.60;1.90;;;;;;;1.07;60.17;101008.03;1745784;82;21088;-76
2022/01/21 09:15:50;;;;;;;8.43;2.12;;;;;;;1.06;60.48;101020.48;1746381;81;21594;-77
2022/01/21 09:18:20;;;;;;;4.37;2.00;;;;;;;1.10;60.26;101035.85;1746015;82;21116;-76
2022/01/21 09:20:47;;;;;;;6.05;2.22;;;;;;;1.14;60.27;101020.99;1745881;81;21812;-77
2022/01/21 09:23:13;;;;;;;5.65;1.80;;;;;;;1.17;60.46;101034.17;1745148;81;21120;-77
2022/01/21 09:25:40;;;;;;;5.58;1.85;;;;;;;1.21;60.47;101029.69;1740536;82;21072;-77
2022/01/21 09:28:07;;;;;;;4.85;2.00;;;;;;;1.25;60.46;101048.55;1740503;81;21598;-77
2022/01/21 09:30:34;;;;;;;6.08;1.90;;;;;;;1.25;60.21;101051.13;1740455;81;21080;-77
2022/01/21 09:33:00;;;;;;;4.35;2.20;;;;;;;1.27;60.19;101040.87;1740270;82;21746;-76
2022/01/21 09:35:27;;;;;;;5.72;2.30;;;;;;;1.30;60.29;101035.91;1740415;81;21124;-76
2022/01/21 09:37:54;;;;;;;9.78;2.10;;;;;;;1.36;59.88;101053.16;1740382;82;21083;-77
2022/01/21 09:40:23;;;;;;;6.22;2.20;;;;;;;1.35;59.75;101042.27;1740227;81;21061;-77
2022/01/21 09:42:51;;;;;;;5.70;2.25;;;;;;;1.36;59.94;101033.30;1711327;82;21099;-77
2022/01/21 09:45:22;;;;;;;6.72;1.95;;;;;;;1.44;60.09;101036.39;1740463;82;21854;-76
2022/01/21 09:47:48;;;;;;;5.12;2.25;;;;;;;1.50;60.00;101040.72;1739980;81;21076;-76
2022/01/21 09:50:16;;;;;;;6.30;1.90;;;;;;;1.54;59.78;101067.36;1740290;81;21116;-76
2022/01/21 09:52:51;;;;;;;5.00;2.47;;;;;;;1.54;59.67;101038.81;1711032;82;21328;-77
2022/01/21 09:55:21;;;;;;;3.80;1.67;;;;;;;1.61;59.58;101046.99;1740251;81;21072;-77
2022/01/21 09:57:50;;;;;;;8.20;2.17;;;;;;;1.64;59.59;101027.34;1740751;82;21765;-76
2022/01/21 10:00:17;;;;;;;4.47;2.22;;;;;;;1.64;59.34;101038.13;1739350;82;22238;-77
2022/01/21 10:02:45;;;;;;;6.10;1.92;;;;;;;1.66;59.66;101025.73;1740345;81;21025;-77
2022/01/21 10:05:12;;;;;;;4.35;2.12;;;;;;;1.74;59.39;101024.94;1740273;82;21068;-76
2022/01/21 10:07:42;;;;;;;5.92;2.65;;;;;;;1.73;59.22;101041.32;1740280;81;21115;-77
2022/01/21 10:10:09;;;;;;;4.10;1.80;;;;;;;1.74;59.42;101039.20;1740363;81;21755;-78
2022/01/21 10:12:38;;;;;;;4.60;2.12;;;;;;;1.80;59.31;101038.70;1740339;82;21072;-77
2022/01/21 10:15:06;;;;;;;5.47;2.00;;;;;;;1.83;59.35;101043.70;1711476;82;21116;-78
2022/01/21 10:17:33;;;;;;;8.13;2.20;;;;;;;1.79;59.08;101023.55;1740365;81;21238;-77
2022/01/21 10:20:18;;;;;;;5.42;2.70;;;;;;;1.93;59.54;101028.31;1740268;81;21080;-77
2022/01/21 10:23:00;;;;;;;6.05;2.00;;;;;;;2.00;58.99;101058.17;1740159;82;21751;-77
2022/01/21 10:25:27;;;;;;;9.23;2.37;;;;;;;1.91;58.97;101051.98;1742546;82;21119;-78
2022/01/21 10:28:13;;;;;;;5.80;2.15;;;;;;;1.88;58.83;101044.91;1745661;81;21005;-77
2022/01/21 10:30:40;;;;;;;3.72;1.82;;;;;;;1.88;58.85;101053.10;1746091;81;21076;-77
2022/01/21 10:33:21;;;;;;;8.35;2.50;;;;;;;1.81;58.52;101071.66;1745951;82;21068;-78
2022/01/21 10:35:50;;;;;;;4.33;2.42;;;;;;;1.76;58.97;101062.27;1745493;81;22583;-78
2022/01/21 10:38:27;;;;;;;7.12;2.45;;;;;;;1.81;59.08;101066.06;1745693;81;21044;-77
2022/01/21 10:40:51;;;;;;;8.28;2.25;;;;;;;1.86;59.18;101062.45;1745120;81;21056;-78
2022/01/21 10:43:18;;;;;;;5.12;2.08;;;;;;;1.98;59.31;101068.45;1745701;81;21076;-78
2022/01/21 10:45:50;;;;;;;3.52;1.75;;;;;;;1.97;59.09;101067.97;1745739;82;21114;-77
2022/01/21 10:48:17;;;;;;;6.90;2.37;;;;;;;1.93;58.93;101074.66;1745671;82;21741;-77
2022/01/21 10:50:44;;;;;;;5.78;2.12;;;;;;;1.96;59.06;101072.66;1745469;82;21547;-77
2022/01/21 10:53:29;;;;;;;6.85;2.35;;;;;;;1.95;58.81;101081.23;1745803;81;21071;-77
2022/01/21 10:56:10;;;;;;;4.67;1.90;;;;;;;1.94;59.08;101093.72;1746118;82;21977;-76
2022/01/21 10:58:44;;;;;;;4.87;1.90;;;;;;;1.93;58.89;101086.72;1746426;81;21068;-77
2022/01/21 11:01:21;;;;;;;3.95;1.95;;;;;;;1.90;58.96;101093.03;1744977;81;21884;-77
2022/01/21 11:04:12;;;;;;;6.53;2.17;;;;;;;1.89;58.88;101134.94;1745706;82;21021;-77
2022/01/21 11:06:52;;;;;;;6.87;1.70;;;;;;;1.90;58.86;101100.41;1745301;81;21103;-77
2022/01/21 11:09:24;;;;;;;4.10;1.80;;;;;;;1.82;58.81;101099.02;1743806;81;21073;-76
2022/01/21 11:12:10;;;;;;;6.78;2.20;;;;;;;1.83;58.78;101097.31;1746356;82;21087;-77
2022/01/21 11:14:40;;;;;;;7.45;2.33;;;;;;;1.75;58.76;101111.98;1746226;82;22533;-76
2022/01/21 11:17:08;;;;;;;4.70;1.80;;;;;;;1.73;58.84;101095.82;1742976;81;21064;-77
2022/01/21 11:19:35;;;;;;;5.28;2.08;;;;;;;1.75;58.89;101119.77;1745791;81;21056;-76
2022/01/21 11:22:04;;;;;;;5.90;1.92;;;;;;;1.69;58.98;101125.86;1745781;81;21602;-76
2022/01/21 11:24:31;;;;;;;6.80;2.05;;;;;;;1.68;58.70;101129.64;1745675;82;21060;-76
2022/01/21 11:27:11;;;;;;;7.83;2.10;;;;;;;1.69;59.03;101113.25;1745636;81;22655;-76
2022/01/21 11:29:37;;;;;;;9.75;2.35;;;;;;;1.71;59.18;101120.77;1745616;81;21589;-76
2022/01/21 11:32:05;;;;;;;6.28;2.42;;;;;;;1.74;59.09;101120.95;1745717;81;21071;-76
2022/01/21 11:34:33;;;;;;;5.65;2.00;;;;;;;1.74;58.44;101129.63;1745950;82;21080;-76
2022/01/21 11:36:59;;;;;;;5.40;2.37;;;;;;;1.71;58.78;101110.39;1746018;82;21601;-76
2022/01/21 11:39:26;;;;;;;6.47;2.27;;;;;;;1.71;58.70;101107.80;1746051;81;21692;-76
2022/01/21 11:41:58;;;;;;;5.62;2.05;;;;;;;1.70;58.97;101107.28;1746001;82;21581;-76
2022/01/21 11:44:28;;;;;;;6.60;1.90;;;;;;;1.77;59.00;101103.00;1745603;81;21049;-76
2022/01/21 11:47:15;;;;;;;6.53;1.87;;;;;;;1.75;58.62;101114.58;1745123;81;21223;-76
2022/01/21 11:49:34;;;;;;;4.40;1.90;;;;;;;1.77;58.64;101120.28;1743677;82;21594;-76
2022/01/21 11:52:15;;;;;;;6.00;1.85;;;;;;;1.79;58.69;101099.22;1745861;82;21750;-76
2022/01/21 11:54:42;;;;;;;4.42;1.80;;;;;;;1.79;58.80;101093.62;1746090;81;21064;-76
2022/01/21 11:57:10;;;;;;;6.12;2.05;;;;;;;1.81;58.63;101106.30;1746043;81;21139;-77
2022/01/21 11:59:57;;;;;;;6.20;2.20;;;;;;;1.81;58.80;101095.91;1744918;81;21072;-77
2022/01/21 12:02:25;;;;;;;4.85;2.20;;;;;;;1.84;58.88;101104.28;1744889;81;21060;-77
2022/01/21 12:05:01;;;;;;;;;;;;;;;1.85;58.71;101106.09;1748353;81;22686;-76
2022/01/21 12:07:44;;;;;;;9.40;2.67;;;;;;;1.78;58.64;101090.92;1714061;82;20183;-77
2022/01/21 12:10:29;;;;;;;6.12;2.42;;;;;;;1.77;58.78;101099.11;1732979;82;21046;-77
2022/01/21 12:13:16;;;;;;;7.22;2.33;;;;;;;1.74;58.30;101102.79;1732426;81;21575;-77
2022/01/21 12:15:57;;;;;;;5.40;2.35;;;;;;;1.70;58.54;101096.91;1733021;82;21097;-77
2022/01/21 12:18:43;;;;;;;6.25;2.65;;;;;;;1.69;58.41;101112.88;1733278;82;21781;-77
2022/01/21 12:21:28;;;;;;;8.53;2.30;;;;;;;1.66;58.49;101129.53;1732019;81;21050;-77
2022/01/21 12:23:55;;;;;;;6.97;2.98;;;;;;;1.62;58.56;101102.89;1732801;81;22352;-77
2022/01/21 12:26:26;;;;;;;5.20;2.27;;;;;;;1.65;58.60;101110.89;1732893;82;21325;-77